sensor_id;sensor_type;location;lat;lon;timestamp;P1;durP1;ratioP1;P2;durP2;ratioP2
73132;SDS011;61320;52.008;4.530;2022-08-24T00:01:01;5.63;;;5.63;;
73132;SDS011;61320;52.008;4.530;2022-08-24T00:03:38;6.45;;;6.45;;
73132;SDS011;61320;52.008;4.530;2022-08-24T00:06:05;6.22;;;6.22;;
73132;SDS011;61320;52.008;4.530;2022-08-24T00:08:33;6.14;;;6.14;;
73132;SDS011;61320;52.008;4.530;2022-08-24T00:10:59;6.16;;;6.16;;
73132;SDS011;61320;52.008;4.530;2022-08-24T00:13:25;6.49;;;6.49;;
73132;SDS011;61320;52.008;4.530;2022-08-24T00:15:51;6.19;;;6.19;;
73132;SDS011;61320;52.008;4.530;2022-08-24T00:18:17;6.13;;;6.13;;
73132;SDS011;61320;52.008;4.530;2022-08-24T00:20:43;5.97;;;5.97;;
73132;SDS011;61320;52.008;4.530;2022-08-24T00:23:10;5.93;;;5.93;;
73132;SDS011;61320;52.008;4.530;2022-08-24T00:25:36;5.77;;;5.77;;
73132;SDS011;61320;52.008;4.530;2022-08-24T00:28:03;5.71;;;5.71;;
73132;SDS011;61320;52.008;4.530;2022-08-24T00:30:29;6.01;;;6.01;;
73132;SDS011;61320;52.008;4.530;2022-08-24T00:32:55;6.22;;;6.22;;
73132;SDS011;61320;52.008;4.530;2022-08-24T00:35:21;5.81;;;5.81;;
73132;SDS011;61320;52.008;4.530;2022-08-24T00:37:48;5.85;;;5.85;;
73132;SDS011;61320;52.008;4.530;2022-08-24T00:40:17;5.33;;;5.33;;
73132;SDS011;61320;52.008;4.530;2022-08-24T00:42:58;5.54;;;5.54;;
73132;SDS011;61320;52.008;4.530;2022-08-24T00:45:27;5.26;;;5.26;;
73132;SDS011;61320;52.008;4.530;2022-08-24T00:47:58;4.92;;;4.92;;
73132;SDS011;61320;52.008;4.530;2022-08-24T00:50:31;5.00;;;5.00;;
73132;SDS011;61320;52.008;4.530;2022-08-24T00:53:02;5.16;;;5.16;;
73132;SDS011;61320;52.008;4.530;2022-08-24T00:55:32;4.93;;;4.93;;
73132;SDS011;61320;52.008;4.530;2022-08-24T00:58:05;4.74;;;4.74;;
73132;SDS011;61320;52.008;4.530;2022-08-24T01:00:41;4.68;;;4.68;;
73132;SDS011;61320;52.008;4.530;2022-08-24T01:03:12;4.21;;;4.21;;
73132;SDS011;61320;52.008;4.530;2022-08-24T01:05:38;4.13;;;4.13;;
73132;SDS011;61320;52.008;4.530;2022-08-24T01:08:05;4.20;;;4.20;;
73132;SDS011;61320;52.008;4.530;2022-08-24T01:10:38;4.24;;;4.24;;
73132;SDS011;61320;52.008;4.530;2022-08-24T01:13:11;4.29;;;4.29;;
73132;SDS011;61320;52.008;4.530;2022-08-24T01:15:40;4.64;;;4.64;;
73132;SDS011;61320;52.008;4.530;2022-08-24T01:18:10;5.75;;;5.75;;
73132;SDS011;61320;52.008;4.530;2022-08-24T01:21:00;5.86;;;5.86;;
73132;SDS011;61320;52.008;4.530;2022-08-24T01:24:11;6.78;;;6.78;;
73132;SDS011;61320;52.008;4.530;2022-08-24T01:26:30;7.26;;;7.26;;
73132;SDS011;61320;52.008;4.530;2022-08-24T01:29:02;7.06;;;7.06;;
73132;SDS011;61320;52.008;4.530;2022-08-24T01:31:31;7.65;;;7.65;;
73132;SDS011;61320;52.008;4.530;2022-08-24T01:33:56;7.96;;;7.96;;
73132;SDS011;61320;52.008;4.530;2022-08-24T01:38:50;8.58;;;8.58;;
73132;SDS011;61320;52.008;4.530;2022-08-24T01:41:15;8.59;;;8.59;;
73132;SDS011;61320;52.008;4.530;2022-08-24T01:43:41;9.30;;;9.30;;
73132;SDS011;61320;52.008;4.530;2022-08-24T01:46:06;9.83;;;9.83;;
73132;SDS011;61320;52.008;4.530;2022-08-24T01:48:32;9.47;;;9.47;;
73132;SDS011;61320;52.008;4.530;2022-08-24T01:50:57;9.09;;;9.09;;
73132;SDS011;61320;52.008;4.530;2022-08-24T01:53:23;9.38;;;9.38;;
73132;SDS011;61320;52.008;4.530;2022-08-24T01:55:48;9.26;;;9.26;;
73132;SDS011;61320;52.008;4.530;2022-08-24T01:58:15;9.44;;;9.44;;
73132;SDS011;61320;52.008;4.530;2022-08-24T02:00:40;9.23;;;9.23;;
73132;SDS011;61320;52.008;4.530;2022-08-24T02:03:07;8.82;;;8.82;;
73132;SDS011;61320;52.008;4.530;2022-08-24T02:05:33;8.54;;;8.54;;
73132;SDS011;61320;52.008;4.530;2022-08-24T02:07:59;8.46;;;8.46;;
73132;SDS011;61320;52.008;4.530;2022-08-24T02:10:25;8.75;;;8.75;;
73132;SDS011;61320;52.008;4.530;2022-08-24T02:12:52;8.53;;;8.53;;
73132;SDS011;61320;52.008;4.530;2022-08-24T02:15:28;8.11;;;8.11;;
73132;SDS011;61320;52.008;4.530;2022-08-24T02:18:04;8.23;;;8.23;;
73132;SDS011;61320;52.008;4.530;2022-08-24T02:20:31;8.01;;;8.01;;
73132;SDS011;61320;52.008;4.530;2022-08-24T02:22:57;7.86;;;7.86;;
73132;SDS011;61320;52.008;4.530;2022-08-24T02:25:23;7.86;;;7.86;;
73132;SDS011;61320;52.008;4.530;2022-08-24T02:27:55;7.30;;;7.30;;
73132;SDS011;61320;52.008;4.530;2022-08-24T02:30:22;7.58;;;7.58;;
73132;SDS011;61320;52.008;4.530;2022-08-24T02:32:47;7.22;;;7.22;;
73132;SDS011;61320;52.008;4.530;2022-08-24T02:35:13;7.03;;;7.03;;
73132;SDS011;61320;52.008;4.530;2022-08-24T02:37:39;6.85;;;6.85;;
73132;SDS011;61320;52.008;4.530;2022-08-24T02:40:05;6.76;;;6.76;;
73132;SDS011;61320;52.008;4.530;2022-08-24T02:42:31;6.28;;;6.28;;
73132;SDS011;61320;52.008;4.530;2022-08-24T02:44:59;6.17;;;6.17;;
73132;SDS011;61320;52.008;4.530;2022-08-24T02:47:25;6.55;;;6.55;;
73132;SDS011;61320;52.008;4.530;2022-08-24T02:49:50;5.77;;;5.77;;
73132;SDS011;61320;52.008;4.530;2022-08-24T02:52:16;6.22;;;6.22;;
73132;SDS011;61320;52.008;4.530;2022-08-24T02:54:41;6.29;;;6.29;;
73132;SDS011;61320;52.008;4.530;2022-08-24T02:57:07;6.57;;;6.57;;
73132;SDS011;61320;52.008;4.530;2022-08-24T02:59:32;6.44;;;6.44;;
73132;SDS011;61320;52.008;4.530;2022-08-24T03:01:58;6.25;;;6.25;;
73132;SDS011;61320;52.008;4.530;2022-08-24T03:04:24;6.15;;;6.15;;
73132;SDS011;61320;52.008;4.530;2022-08-24T03:06:49;6.68;;;6.68;;
73132;SDS011;61320;52.008;4.530;2022-08-24T03:09:15;6.85;;;6.85;;
73132;SDS011;61320;52.008;4.530;2022-08-24T03:11:41;6.57;;;6.57;;
73132;SDS011;61320;52.008;4.530;2022-08-24T03:14:06;6.51;;;6.51;;
73132;SDS011;61320;52.008;4.530;2022-08-24T03:16:32;6.13;;;6.13;;
73132;SDS011;61320;52.008;4.530;2022-08-24T03:18:58;5.70;;;5.70;;
73132;SDS011;61320;52.008;4.530;2022-08-24T03:21:24;6.25;;;6.25;;
73132;SDS011;61320;52.008;4.530;2022-08-24T03:23:49;6.06;;;6.06;;
73132;SDS011;61320;52.008;4.530;2022-08-24T03:26:15;5.64;;;5.64;;
73132;SDS011;61320;52.008;4.530;2022-08-24T03:28:40;4.88;;;4.88;;
73132;SDS011;61320;52.008;4.530;2022-08-24T03:31:06;5.30;;;5.30;;
73132;SDS011;61320;52.008;4.530;2022-08-24T03:33:31;4.89;;;4.89;;
73132;SDS011;61320;52.008;4.530;2022-08-24T03:35:57;4.89;;;4.89;;
73132;SDS011;61320;52.008;4.530;2022-08-24T03:38:22;4.61;;;4.61;;
73132;SDS011;61320;52.008;4.530;2022-08-24T03:40:49;4.57;;;4.57;;
73132;SDS011;61320;52.008;4.530;2022-08-24T03:43:15;4.75;;;4.75;;
73132;SDS011;61320;52.008;4.530;2022-08-24T03:46:00;4.69;;;4.69;;
73132;SDS011;61320;52.008;4.530;2022-08-24T03:48:27;4.96;;;4.96;;
73132;SDS011;61320;52.008;4.530;2022-08-24T03:50:53;4.76;;;4.76;;
73132;SDS011;61320;52.008;4.530;2022-08-24T03:53:20;4.36;;;4.36;;
73132;SDS011;61320;52.008;4.530;2022-08-24T03:55:46;4.20;;;4.20;;
73132;SDS011;61320;52.008;4.530;2022-08-24T03:58:12;4.22;;;4.22;;
73132;SDS011;61320;52.008;4.530;2022-08-24T04:00:37;3.70;;;3.70;;
73132;SDS011;61320;52.008;4.530;2022-08-24T04:03:06;4.07;;;4.07;;
73132;SDS011;61320;52.008;4.530;2022-08-24T04:05:33;4.10;;;4.10;;
73132;SDS011;61320;52.008;4.530;2022-08-24T04:07:58;3.74;;;3.74;;
73132;SDS011;61320;52.008;4.530;2022-08-24T04:10:24;3.80;;;3.80;;
73132;SDS011;61320;52.008;4.530;2022-08-24T04:12:50;3.66;;;3.66;;
73132;SDS011;61320;52.008;4.530;2022-08-24T04:15:15;3.54;;;3.54;;
73132;SDS011;61320;52.008;4.530;2022-08-24T04:17:40;3.53;;;3.53;;
73132;SDS011;61320;52.008;4.530;2022-08-24T04:20:06;3.58;;;3.58;;
73132;SDS011;61320;52.008;4.530;2022-08-24T04:22:32;3.32;;;3.32;;
73132;SDS011;61320;52.008;4.530;2022-08-24T04:24:58;3.23;;;3.23;;
73132;SDS011;61320;52.008;4.530;2022-08-24T04:27:23;3.24;;;3.24;;
73132;SDS011;61320;52.008;4.530;2022-08-24T04:29:49;3.64;;;3.64;;
73132;SDS011;61320;52.008;4.530;2022-08-24T04:32:15;3.48;;;3.48;;
73132;SDS011;61320;52.008;4.530;2022-08-24T04:34:44;3.61;;;3.61;;
73132;SDS011;61320;52.008;4.530;2022-08-24T04:37:11;3.59;;;3.59;;
73132;SDS011;61320;52.008;4.530;2022-08-24T04:39:37;3.69;;;3.69;;
73132;SDS011;61320;52.008;4.530;2022-08-24T04:42:03;3.40;;;3.40;;
73132;SDS011;61320;52.008;4.530;2022-08-24T04:44:30;3.73;;;3.73;;
73132;SDS011;61320;52.008;4.530;2022-08-24T04:46:56;3.80;;;3.80;;
73132;SDS011;61320;52.008;4.530;2022-08-24T04:49:21;3.98;;;3.98;;
73132;SDS011;61320;52.008;4.530;2022-08-24T04:51:48;4.10;;;4.10;;
73132;SDS011;61320;52.008;4.530;2022-08-24T04:54:14;4.12;;;4.12;;
73132;SDS011;61320;52.008;4.530;2022-08-24T04:56:40;4.04;;;4.04;;
73132;SDS011;61320;52.008;4.530;2022-08-24T04:59:08;4.29;;;4.29;;
73132;SDS011;61320;52.008;4.530;2022-08-24T05:01:33;4.25;;;4.25;;
73132;SDS011;61320;52.008;4.530;2022-08-24T05:03:59;4.08;;;4.08;;
73132;SDS011;61320;52.008;4.530;2022-08-24T05:06:27;3.91;;;3.91;;
73132;SDS011;61320;52.008;4.530;2022-08-24T05:08:54;4.09;;;4.09;;
73132;SDS011;61320;52.008;4.530;2022-08-24T05:11:21;4.53;;;4.53;;
73132;SDS011;61320;52.008;4.530;2022-08-24T05:13:51;5.14;;;5.14;;
73132;SDS011;61320;52.008;4.530;2022-08-24T05:16:21;5.03;;;5.03;;
73132;SDS011;61320;52.008;4.530;2022-08-24T05:18:47;5.08;;;5.08;;
73132;SDS011;61320;52.008;4.530;2022-08-24T05:21:14;4.84;;;4.84;;
73132;SDS011;61320;52.008;4.530;2022-08-24T05:23:42;4.87;;;4.87;;
73132;SDS011;61320;52.008;4.530;2022-08-24T05:26:15;5.02;;;5.02;;
73132;SDS011;61320;52.008;4.530;2022-08-24T05:28:44;5.02;;;5.02;;
73132;SDS011;61320;52.008;4.530;2022-08-24T05:31:14;5.18;;;5.18;;
73132;SDS011;61320;52.008;4.530;2022-08-24T05:33:47;5.19;;;5.19;;
73132;SDS011;61320;52.008;4.530;2022-08-24T05:36:23;5.38;;;5.38;;
73132;SDS011;61320;52.008;4.530;2022-08-24T05:38:53;5.43;;;5.43;;
73132;SDS011;61320;52.008;4.530;2022-08-24T05:41:21;5.75;;;5.75;;
73132;SDS011;61320;52.008;4.530;2022-08-24T05:43:47;5.58;;;5.58;;
73132;SDS011;61320;52.008;4.530;2022-08-24T05:46:13;5.59;;;5.59;;
73132;SDS011;61320;52.008;4.530;2022-08-24T05:48:39;5.75;;;5.75;;
73132;SDS011;61320;52.008;4.530;2022-08-24T05:51:04;5.99;;;5.99;;
73132;SDS011;61320;52.008;4.530;2022-08-24T05:53:31;5.80;;;5.80;;
73132;SDS011;61320;52.008;4.530;2022-08-24T05:55:58;5.97;;;5.97;;
73132;SDS011;61320;52.008;4.530;2022-08-24T05:58:27;6.44;;;6.44;;
73132;SDS011;61320;52.008;4.530;2022-08-24T06:00:53;6.89;;;6.89;;
73132;SDS011;61320;52.008;4.530;2022-08-24T06:03:18;6.92;;;6.92;;
73132;SDS011;61320;52.008;4.530;2022-08-24T06:05:44;6.66;;;6.66;;
73132;SDS011;61320;52.008;4.530;2022-08-24T06:08:13;7.54;;;7.54;;
73132;SDS011;61320;52.008;4.530;2022-08-24T06:10:39;7.55;;;7.55;;
73132;SDS011;61320;52.008;4.530;2022-08-24T06:13:07;7.06;;;7.06;;
73132;SDS011;61320;52.008;4.530;2022-08-24T06:15:33;6.89;;;6.89;;
73132;SDS011;61320;52.008;4.530;2022-08-24T06:17:59;7.31;;;7.31;;
73132;SDS011;61320;52.008;4.530;2022-08-24T06:20:25;7.29;;;7.29;;
73132;SDS011;61320;52.008;4.530;2022-08-24T06:22:51;7.50;;;7.50;;
73132;SDS011;61320;52.008;4.530;2022-08-24T06:25:16;7.37;;;7.37;;
73132;SDS011;61320;52.008;4.530;2022-08-24T06:28:00;7.15;;;7.15;;
73132;SDS011;61320;52.008;4.530;2022-08-24T06:30:26;6.59;;;6.59;;
73132;SDS011;61320;52.008;4.530;2022-08-24T06:32:57;6.11;;;6.11;;
73132;SDS011;61320;52.008;4.530;2022-08-24T06:35:24;6.16;;;6.16;;
73132;SDS011;61320;52.008;4.530;2022-08-24T06:37:49;6.38;;;6.38;;
73132;SDS011;61320;52.008;4.530;2022-08-24T06:40:15;6.27;;;6.27;;
73132;SDS011;61320;52.008;4.530;2022-08-24T06:42:40;5.80;;;5.80;;
73132;SDS011;61320;52.008;4.530;2022-08-24T06:45:06;6.09;;;6.09;;
73132;SDS011;61320;52.008;4.530;2022-08-24T06:47:32;5.98;;;5.98;;
73132;SDS011;61320;52.008;4.530;2022-08-24T06:49:58;5.99;;;5.99;;
73132;SDS011;61320;52.008;4.530;2022-08-24T06:52:24;6.41;;;6.41;;
73132;SDS011;61320;52.008;4.530;2022-08-24T06:54:49;6.06;;;6.06;;
73132;SDS011;61320;52.008;4.530;2022-08-24T06:57:15;6.03;;;6.03;;
73132;SDS011;61320;52.008;4.530;2022-08-24T06:59:40;5.95;;;5.95;;
73132;SDS011;61320;52.008;4.530;2022-08-24T07:02:07;5.80;;;5.80;;
73132;SDS011;61320;52.008;4.530;2022-08-24T07:04:33;5.84;;;5.84;;
73132;SDS011;61320;52.008;4.530;2022-08-24T07:06:58;5.22;;;5.22;;
73132;SDS011;61320;52.008;4.530;2022-08-24T07:09:24;5.46;;;5.46;;
73132;SDS011;61320;52.008;4.530;2022-08-24T07:11:51;5.55;;;5.55;;
73132;SDS011;61320;52.008;4.530;2022-08-24T07:14:17;5.48;;;5.48;;
73132;SDS011;61320;52.008;4.530;2022-08-24T07:16:43;4.86;;;4.86;;
73132;SDS011;61320;52.008;4.530;2022-08-24T07:19:09;4.69;;;4.69;;
73132;SDS011;61320;52.008;4.530;2022-08-24T07:21:34;4.68;;;4.68;;
73132;SDS011;61320;52.008;4.530;2022-08-24T07:24:01;4.54;;;4.54;;
73132;SDS011;61320;52.008;4.530;2022-08-24T07:26:28;4.60;;;4.60;;
73132;SDS011;61320;52.008;4.530;2022-08-24T07:28:57;5.37;;;5.37;;
73132;SDS011;61320;52.008;4.530;2022-08-24T07:31:43;5.88;;;5.88;;
73132;SDS011;61320;52.008;4.530;2022-08-24T07:34:10;4.72;;;4.72;;
73132;SDS011;61320;52.008;4.530;2022-08-24T07:36:36;4.37;;;4.37;;
73132;SDS011;61320;52.008;4.530;2022-08-24T07:39:03;3.68;;;3.68;;
73132;SDS011;61320;52.008;4.530;2022-08-24T07:41:29;3.59;;;3.59;;
73132;SDS011;61320;52.008;4.530;2022-08-24T07:43:55;3.76;;;3.76;;
73132;SDS011;61320;52.008;4.530;2022-08-24T07:46:22;3.58;;;3.58;;
73132;SDS011;61320;52.008;4.530;2022-08-24T07:48:47;3.46;;;3.46;;
73132;SDS011;61320;52.008;4.530;2022-08-24T07:51:15;3.55;;;3.55;;
73132;SDS011;61320;52.008;4.530;2022-08-24T07:53:42;3.46;;;3.46;;
73132;SDS011;61320;52.008;4.530;2022-08-24T07:56:08;2.90;;;2.90;;
73132;SDS011;61320;52.008;4.530;2022-08-24T07:58:35;3.03;;;3.03;;
73132;SDS011;61320;52.008;4.530;2022-08-24T08:01:01;2.96;;;2.96;;
73132;SDS011;61320;52.008;4.530;2022-08-24T08:03:29;2.96;;;2.96;;
73132;SDS011;61320;52.008;4.530;2022-08-24T08:06:03;3.44;;;3.44;;
73132;SDS011;61320;52.008;4.530;2022-08-24T08:08:32;3.82;;;3.82;;
73132;SDS011;61320;52.008;4.530;2022-08-24T08:10:59;3.25;;;3.25;;
73132;SDS011;61320;52.008;4.530;2022-08-24T08:13:26;2.99;;;2.99;;
73132;SDS011;61320;52.008;4.530;2022-08-24T08:15:53;3.04;;;3.04;;
73132;SDS011;61320;52.008;4.530;2022-08-24T08:18:19;3.20;;;3.20;;
73132;SDS011;61320;52.008;4.530;2022-08-24T08:20:45;3.64;;;3.64;;
73132;SDS011;61320;52.008;4.530;2022-08-24T08:23:11;3.54;;;3.54;;
73132;SDS011;61320;52.008;4.530;2022-08-24T08:25:55;2.53;;;2.53;;
73132;SDS011;61320;52.008;4.530;2022-08-24T08:28:22;2.36;;;2.36;;
73132;SDS011;61320;52.008;4.530;2022-08-24T08:30:51;2.64;;;2.64;;
73132;SDS011;61320;52.008;4.530;2022-08-24T08:33:17;2.62;;;2.62;;
73132;SDS011;61320;52.008;4.530;2022-08-24T08:35:43;2.71;;;2.71;;
73132;SDS011;61320;52.008;4.530;2022-08-24T08:38:09;2.74;;;2.74;;
73132;SDS011;61320;52.008;4.530;2022-08-24T08:40:46;2.81;;;2.81;;
73132;SDS011;61320;52.008;4.530;2022-08-24T08:43:38;2.26;;;2.26;;
73132;SDS011;61320;52.008;4.530;2022-08-24T09:00:18;2.15;;;2.15;;
73132;SDS011;61320;52.008;4.530;2022-08-24T09:18:51;2.58;;;2.58;;
73132;SDS011;61320;52.008;4.530;2022-08-24T09:32:22;1.76;;;1.76;;
73132;SDS011;61320;52.008;4.530;2022-08-24T09:35:12;1.91;;;1.91;;
73132;SDS011;61320;52.008;4.530;2022-08-24T09:40:52;1.45;;;1.45;;
73132;SDS011;61320;52.008;4.530;2022-08-24T09:43:50;1.72;;;1.72;;
73132;SDS011;61320;52.008;4.530;2022-08-24T09:55:31;1.96;;;1.96;;
73132;SDS011;61320;52.008;4.530;2022-08-24T10:20:21;2.04;;;2.04;;
73132;SDS011;61320;52.008;4.530;2022-08-24T10:25:46;1.51;;;1.51;;
73132;SDS011;61320;52.008;4.530;2022-08-24T10:37:11;1.83;;;1.83;;
73132;SDS011;61320;52.008;4.530;2022-08-24T10:54:07;2.01;;;2.01;;
73132;SDS011;61320;52.008;4.530;2022-08-24T10:56:54;1.80;;;1.80;;
73132;SDS011;61320;52.008;4.530;2022-08-24T10:59:35;2.02;;;2.02;;
73132;SDS011;61320;52.008;4.530;2022-08-24T11:02:35;1.98;;;1.98;;
73132;SDS011;61320;52.008;4.530;2022-08-24T11:05:05;1.87;;;1.87;;
73132;SDS011;61320;52.008;4.530;2022-08-24T11:07:32;2.09;;;2.09;;
73132;SDS011;61320;52.008;4.530;2022-08-24T11:09:59;1.85;;;1.85;;
73132;SDS011;61320;52.008;4.530;2022-08-24T11:12:32;1.99;;;1.99;;
73132;SDS011;61320;52.008;4.530;2022-08-24T11:15:24;1.94;;;1.94;;
73132;SDS011;61320;52.008;4.530;2022-08-24T11:17:54;2.08;;;2.08;;
73132;SDS011;61320;52.008;4.530;2022-08-24T11:20:26;1.95;;;1.95;;
73132;SDS011;61320;52.008;4.530;2022-08-24T11:23:02;2.13;;;2.13;;
73132;SDS011;61320;52.008;4.530;2022-08-24T11:25:29;1.89;;;1.89;;
73132;SDS011;61320;52.008;4.530;2022-08-24T11:30:30;1.82;;;1.82;;
73132;SDS011;61320;52.008;4.530;2022-08-24T11:33:00;2.18;;;2.18;;
73132;SDS011;61320;52.008;4.530;2022-08-24T11:38:07;2.54;;;2.54;;
73132;SDS011;61320;52.008;4.530;2022-08-24T11:44:09;2.06;;;2.06;;
73132;SDS011;61320;52.008;4.530;2022-08-24T11:47:02;1.77;;;1.77;;
73132;SDS011;61320;52.008;4.530;2022-08-24T11:50:06;2.15;;;2.15;;
73132;SDS011;61320;52.008;4.530;2022-08-24T11:53:06;2.18;;;2.18;;
73132;SDS011;61320;52.008;4.530;2022-08-24T11:55:41;2.09;;;2.09;;
73132;SDS011;61320;52.008;4.530;2022-08-24T12:00:47;2.31;;;2.31;;
73132;SDS011;61320;52.008;4.530;2022-08-24T12:03:42;2.00;;;2.00;;
73132;SDS011;61320;52.008;4.530;2022-08-24T12:06:33;2.09;;;2.09;;
73132;SDS011;61320;52.008;4.530;2022-08-24T12:09:27;1.93;;;1.93;;
73132;SDS011;61320;52.008;4.530;2022-08-24T12:15:01;1.94;;;1.94;;
73132;SDS011;61320;52.008;4.530;2022-08-24T12:22:58;2.22;;;2.22;;
73132;SDS011;61320;52.008;4.530;2022-08-24T12:25:29;2.08;;;2.08;;
73132;SDS011;61320;52.008;4.530;2022-08-24T12:28:20;1.85;;;1.85;;
73132;SDS011;61320;52.008;4.530;2022-08-24T12:30:52;2.16;;;2.16;;
73132;SDS011;61320;52.008;4.530;2022-08-24T12:33:28;1.99;;;1.99;;
73132;SDS011;61320;52.008;4.530;2022-08-24T12:36:02;2.05;;;2.05;;
73132;SDS011;61320;52.008;4.530;2022-08-24T12:38:39;2.01;;;2.01;;
73132;SDS011;61320;52.008;4.530;2022-08-24T12:41:14;1.84;;;1.84;;
73132;SDS011;61320;52.008;4.530;2022-08-24T12:44:14;1.93;;;1.93;;
73132;SDS011;61320;52.008;4.530;2022-08-24T12:46:41;2.19;;;2.19;;
73132;SDS011;61320;52.008;4.530;2022-08-24T12:52:12;2.01;;;2.01;;
73132;SDS011;61320;52.008;4.530;2022-08-24T12:55:24;2.13;;;2.13;;
73132;SDS011;61320;52.008;4.530;2022-08-24T13:00:39;1.87;;;1.87;;
73132;SDS011;61320;52.008;4.530;2022-08-24T13:03:22;2.27;;;2.27;;
73132;SDS011;61320;52.008;4.530;2022-08-24T13:05:57;2.44;;;2.44;;
73132;SDS011;61320;52.008;4.530;2022-08-24T13:08:39;2.34;;;2.34;;
73132;SDS011;61320;52.008;4.530;2022-08-24T13:11:12;2.69;;;2.69;;
73132;SDS011;61320;52.008;4.530;2022-08-24T13:19:15;2.59;;;2.59;;
73132;SDS011;61320;52.008;4.530;2022-08-24T13:21:57;2.60;;;2.60;;
73132;SDS011;61320;52.008;4.530;2022-08-24T13:24:45;2.73;;;2.73;;
73132;SDS011;61320;52.008;4.530;2022-08-24T13:29:53;2.69;;;2.69;;
73132;SDS011;61320;52.008;4.530;2022-08-24T13:32:29;2.52;;;2.52;;
73132;SDS011;61320;52.008;4.530;2022-08-24T13:35:27;2.34;;;2.34;;
73132;SDS011;61320;52.008;4.530;2022-08-24T13:40:51;2.36;;;2.36;;
73132;SDS011;61320;52.008;4.530;2022-08-24T13:43:43;2.44;;;2.44;;
73132;SDS011;61320;52.008;4.530;2022-08-24T13:46:18;2.60;;;2.60;;
73132;SDS011;61320;52.008;4.530;2022-08-24T13:49:18;2.60;;;2.60;;
73132;SDS011;61320;52.008;4.530;2022-08-24T13:54:46;1.75;;;1.75;;
73132;SDS011;61320;52.008;4.530;2022-08-24T14:02:42;1.73;;;1.73;;
73132;SDS011;61320;52.008;4.530;2022-08-24T14:11:16;1.94;;;1.94;;
73132;SDS011;61320;52.008;4.530;2022-08-24T14:14:07;1.87;;;1.87;;
73132;SDS011;61320;52.008;4.530;2022-08-24T14:25:45;2.10;;;2.10;;
73132;SDS011;61320;52.008;4.530;2022-08-24T14:31:11;1.74;;;1.74;;
73132;SDS011;61320;52.008;4.530;2022-08-24T14:33:41;1.91;;;1.91;;
73132;SDS011;61320;52.008;4.530;2022-08-24T14:36:23;1.79;;;1.79;;
73132;SDS011;61320;52.008;4.530;2022-08-24T14:39:08;1.87;;;1.87;;
73132;SDS011;61320;52.008;4.530;2022-08-24T14:47:15;7.39;;;7.39;;
73132;SDS011;61320;52.008;4.530;2022-08-24T15:06:10;1.71;;;1.71;;
73132;SDS011;61320;52.008;4.530;2022-08-24T15:08:50;1.61;;;1.61;;
73132;SDS011;61320;52.008;4.530;2022-08-24T15:11:37;1.83;;;1.83;;
73132;SDS011;61320;52.008;4.530;2022-08-24T15:14:10;1.59;;;1.59;;
73132;SDS011;61320;52.008;4.530;2022-08-24T15:16:50;1.65;;;1.65;;
73132;SDS011;61320;52.008;4.530;2022-08-24T15:19:40;2.07;;;2.07;;
73132;SDS011;61320;52.008;4.530;2022-08-24T15:22:32;1.63;;;1.63;;
73132;SDS011;61320;52.008;4.530;2022-08-24T15:25:17;1.84;;;1.84;;
73132;SDS011;61320;52.008;4.530;2022-08-24T15:27:56;1.97;;;1.97;;
73132;SDS011;61320;52.008;4.530;2022-08-24T15:30:39;1.88;;;1.88;;
73132;SDS011;61320;52.008;4.530;2022-08-24T15:33:10;1.89;;;1.89;;
73132;SDS011;61320;52.008;4.530;2022-08-24T15:35:39;2.31;;;2.31;;
73132;SDS011;61320;52.008;4.530;2022-08-24T15:38:24;2.30;;;2.30;;
73132;SDS011;61320;52.008;4.530;2022-08-24T15:41:07;2.20;;;2.20;;
73132;SDS011;61320;52.008;4.530;2022-08-24T15:43:51;2.32;;;2.32;;
73132;SDS011;61320;52.008;4.530;2022-08-24T15:49:00;2.52;;;2.52;;
73132;SDS011;61320;52.008;4.530;2022-08-24T15:54:26;2.20;;;2.20;;
73132;SDS011;61320;52.008;4.530;2022-08-24T15:57:00;2.41;;;2.41;;
73132;SDS011;61320;52.008;4.530;2022-08-24T16:05:00;2.65;;;2.65;;
73132;SDS011;61320;52.008;4.530;2022-08-24T16:10:47;2.65;;;2.65;;
73132;SDS011;61320;52.008;4.530;2022-08-24T16:15:47;2.71;;;2.71;;
73132;SDS011;61320;52.008;4.530;2022-08-24T16:18:26;3.07;;;3.07;;
73132;SDS011;61320;52.008;4.530;2022-08-24T16:23:58;2.71;;;2.71;;
73132;SDS011;61320;52.008;4.530;2022-08-24T16:26:32;2.55;;;2.55;;
73132;SDS011;61320;52.008;4.530;2022-08-24T16:40:42;2.88;;;2.88;;
73132;SDS011;61320;52.008;4.530;2022-08-24T16:43:16;2.86;;;2.86;;
73132;SDS011;61320;52.008;4.530;2022-08-24T16:48:17;3.17;;;3.17;;
73132;SDS011;61320;52.008;4.530;2022-08-24T16:50:43;3.39;;;3.39;;
73132;SDS011;61320;52.008;4.530;2022-08-24T16:53:09;3.17;;;3.17;;
73132;SDS011;61320;52.008;4.530;2022-08-24T16:55:34;2.98;;;2.98;;
73132;SDS011;61320;52.008;4.530;2022-08-24T16:58:01;3.24;;;3.24;;
73132;SDS011;61320;52.008;4.530;2022-08-24T17:00:27;3.34;;;3.34;;
73132;SDS011;61320;52.008;4.530;2022-08-24T17:06:00;3.06;;;3.06;;
73132;SDS011;61320;52.008;4.530;2022-08-24T17:08:26;3.68;;;3.68;;
73132;SDS011;61320;52.008;4.530;2022-08-24T17:10:55;3.16;;;3.16;;
73132;SDS011;61320;52.008;4.530;2022-08-24T17:13:21;3.24;;;3.24;;
73132;SDS011;61320;52.008;4.530;2022-08-24T17:15:47;3.54;;;3.54;;
73132;SDS011;61320;52.008;4.530;2022-08-24T17:18:12;3.32;;;3.32;;
73132;SDS011;61320;52.008;4.530;2022-08-24T17:20:39;3.46;;;3.46;;
73132;SDS011;61320;52.008;4.530;2022-08-24T17:23:05;3.88;;;3.88;;
73132;SDS011;61320;52.008;4.530;2022-08-24T17:25:32;3.73;;;3.73;;
73132;SDS011;61320;52.008;4.530;2022-08-24T17:27:58;3.51;;;3.51;;
73132;SDS011;61320;52.008;4.530;2022-08-24T17:30:27;3.14;;;3.14;;
73132;SDS011;61320;52.008;4.530;2022-08-24T17:32:53;3.19;;;3.19;;
73132;SDS011;61320;52.008;4.530;2022-08-24T17:35:20;3.15;;;3.15;;
73132;SDS011;61320;52.008;4.530;2022-08-24T17:37:47;3.20;;;3.20;;
73132;SDS011;61320;52.008;4.530;2022-08-24T17:40:14;3.49;;;3.49;;
73132;SDS011;61320;52.008;4.530;2022-08-24T17:42:42;3.42;;;3.42;;
73132;SDS011;61320;52.008;4.530;2022-08-24T17:45:08;3.42;;;3.42;;
73132;SDS011;61320;52.008;4.530;2022-08-24T17:47:34;3.63;;;3.63;;
73132;SDS011;61320;52.008;4.530;2022-08-24T17:50:00;4.40;;;4.40;;
73132;SDS011;61320;52.008;4.530;2022-08-24T17:52:26;6.45;;;6.45;;
73132;SDS011;61320;52.008;4.530;2022-08-24T17:54:52;6.84;;;6.84;;
73132;SDS011;61320;52.008;4.530;2022-08-24T17:57:22;5.29;;;5.29;;
73132;SDS011;61320;52.008;4.530;2022-08-24T17:59:51;4.28;;;4.28;;
73132;SDS011;61320;52.008;4.530;2022-08-24T18:02:17;3.89;;;3.89;;
73132;SDS011;61320;52.008;4.530;2022-08-24T18:04:43;3.72;;;3.72;;
73132;SDS011;61320;52.008;4.530;2022-08-24T18:07:10;3.64;;;3.64;;
73132;SDS011;61320;52.008;4.530;2022-08-24T18:09:40;3.77;;;3.77;;
73132;SDS011;61320;52.008;4.530;2022-08-24T18:12:12;3.90;;;3.90;;
73132;SDS011;61320;52.008;4.530;2022-08-24T18:14:40;3.93;;;3.93;;
73132;SDS011;61320;52.008;4.530;2022-08-24T18:17:10;4.06;;;4.06;;
73132;SDS011;61320;52.008;4.530;2022-08-24T18:19:40;4.51;;;4.51;;
73132;SDS011;61320;52.008;4.530;2022-08-24T18:22:08;4.39;;;4.39;;
73132;SDS011;61320;52.008;4.530;2022-08-24T18:24:34;4.53;;;4.53;;
73132;SDS011;61320;52.008;4.530;2022-08-24T18:27:07;4.84;;;4.84;;
73132;SDS011;61320;52.008;4.530;2022-08-24T18:29:37;4.76;;;4.76;;
73132;SDS011;61320;52.008;4.530;2022-08-24T18:35:08;4.17;;;4.17;;
73132;SDS011;61320;52.008;4.530;2022-08-24T18:37:34;4.57;;;4.57;;
73132;SDS011;61320;52.008;4.530;2022-08-24T18:40:02;4.48;;;4.48;;
73132;SDS011;61320;52.008;4.530;2022-08-24T18:42:29;4.65;;;4.65;;
73132;SDS011;61320;52.008;4.530;2022-08-24T18:44:56;4.61;;;4.61;;
73132;SDS011;61320;52.008;4.530;2022-08-24T18:51:12;4.78;;;4.78;;
73132;SDS011;61320;52.008;4.530;2022-08-24T19:07:00;5.71;;;5.71;;
73132;SDS011;61320;52.008;4.530;2022-08-24T19:12:50;6.26;;;6.26;;
73132;SDS011;61320;52.008;4.530;2022-08-24T19:15:48;6.15;;;6.15;;
73132;SDS011;61320;52.008;4.530;2022-08-24T19:18:14;6.77;;;6.77;;